sensor_id;sensor_type;location;lat;lon;timestamp;P1;durP1;ratioP1;P2;durP2;ratioP2
64842;SDS011;51310;52.198;5.422;2023-07-16T00:01:51;5.25;;;2.08;;
64842;SDS011;51310;52.198;5.422;2023-07-16T00:04:17;5.65;;;1.95;;
64842;SDS011;51310;52.198;5.422;2023-07-16T00:06:43;5.50;;;1.92;;
64842;SDS011;51310;52.198;5.422;2023-07-16T00:09:09;9.48;;;1.92;;
64842;SDS011;51310;52.198;5.422;2023-07-16T00:11:35;8.10;;;2.03;;
64842;SDS011;51310;52.198;5.422;2023-07-16T00:14:01;16.33;;;3.03;;
64842;SDS011;51310;52.198;5.422;2023-07-16T00:16:27;5.95;;;2.08;;
64842;SDS011;51310;52.198;5.422;2023-07-16T00:18:53;6.00;;;2.10;;
64842;SDS011;51310;52.198;5.422;2023-07-16T00:21:19;4.95;;;1.75;;
64842;SDS011;51310;52.198;5.422;2023-07-16T00:23:45;9.70;;;2.58;;
64842;SDS011;51310;52.198;5.422;2023-07-16T00:26:12;14.07;;;2.40;;
64842;SDS011;51310;52.198;5.422;2023-07-16T00:28:39;10.40;;;1.98;;
64842;SDS011;51310;52.198;5.422;2023-07-16T00:31:05;6.22;;;1.92;;
64842;SDS011;51310;52.198;5.422;2023-07-16T00:33:30;4.20;;;2.00;;
64842;SDS011;51310;52.198;5.422;2023-07-16T00:35:56;11.30;;;2.25;;
64842;SDS011;51310;52.198;5.422;2023-07-16T00:38:22;11.40;;;2.28;;
64842;SDS011;51310;52.198;5.422;2023-07-16T00:40:48;7.15;;;2.60;;
64842;SDS011;51310;52.198;5.422;2023-07-16T00:43:14;7.45;;;2.47;;
64842;SDS011;51310;52.198;5.422;2023-07-16T00:45:40;6.97;;;2.20;;
64842;SDS011;51310;52.198;5.422;2023-07-16T00:48:10;4.97;;;2.65;;
64842;SDS011;51310;52.198;5.422;2023-07-16T00:50:38;12.02;;;2.67;;
64842;SDS011;51310;52.198;5.422;2023-07-16T00:53:06;9.95;;;2.80;;
64842;SDS011;51310;52.198;5.422;2023-07-16T00:55:33;6.07;;;2.10;;
64842;SDS011;51310;52.198;5.422;2023-07-16T00:58:04;9.45;;;2.33;;
64842;SDS011;51310;52.198;5.422;2023-07-16T01:00:32;6.05;;;2.33;;
64842;SDS011;51310;52.198;5.422;2023-07-16T01:03:04;9.45;;;2.58;;
64842;SDS011;51310;52.198;5.422;2023-07-16T01:05:54;8.45;;;2.42;;
64842;SDS011;51310;52.198;5.422;2023-07-16T01:11:21;4.70;;;2.10;;
64842;SDS011;51310;52.198;5.422;2023-07-16T01:13:49;5.53;;;1.73;;
64842;SDS011;51310;52.198;5.422;2023-07-16T01:16:18;5.10;;;2.33;;
64842;SDS011;51310;52.198;5.422;2023-07-16T01:18:50;7.75;;;2.35;;
64842;SDS011;51310;52.198;5.422;2023-07-16T01:21:18;10.32;;;2.63;;
64842;SDS011;51310;52.198;5.422;2023-07-16T01:30:03;13.40;;;2.88;;
64842;SDS011;51310;52.198;5.422;2023-07-16T01:32:34;13.60;;;2.55;;
64842;SDS011;51310;52.198;5.422;2023-07-16T01:35:03;5.90;;;2.10;;
64842;SDS011;51310;52.198;5.422;2023-07-16T01:37:31;6.13;;;3.08;;
64842;SDS011;51310;52.198;5.422;2023-07-16T01:39:58;11.18;;;2.65;;
64842;SDS011;51310;52.198;5.422;2023-07-16T01:42:24;11.73;;;3.20;;
64842;SDS011;51310;52.198;5.422;2023-07-16T01:44:50;10.00;;;2.88;;
64842;SDS011;51310;52.198;5.422;2023-07-16T01:50:02;9.30;;;3.22;;
64842;SDS011;51310;52.198;5.422;2023-07-16T01:52:28;9.02;;;2.28;;
64842;SDS011;51310;52.198;5.422;2023-07-16T01:54:54;13.45;;;3.35;;
64842;SDS011;51310;52.198;5.422;2023-07-16T01:57:20;10.63;;;2.97;;
64842;SDS011;51310;52.198;5.422;2023-07-16T01:59:46;10.27;;;3.20;;
64842;SDS011;51310;52.198;5.422;2023-07-16T02:02:12;11.32;;;2.88;;
64842;SDS011;51310;52.198;5.422;2023-07-16T02:04:38;11.82;;;3.13;;
64842;SDS011;51310;52.198;5.422;2023-07-16T02:07:04;13.27;;;3.05;;
64842;SDS011;51310;52.198;5.422;2023-07-16T02:09:30;7.70;;;2.63;;
64842;SDS011;51310;52.198;5.422;2023-07-16T02:11:56;16.33;;;3.45;;
64842;SDS011;51310;52.198;5.422;2023-07-16T02:14:22;10.80;;;3.22;;
64842;SDS011;51310;52.198;5.422;2023-07-16T02:16:48;11.95;;;3.42;;
64842;SDS011;51310;52.198;5.422;2023-07-16T02:19:14;12.93;;;3.20;;
64842;SDS011;51310;52.198;5.422;2023-07-16T02:21:40;8.90;;;2.80;;
64842;SDS011;51310;52.198;5.422;2023-07-16T02:24:06;14.77;;;3.08;;
64842;SDS011;51310;52.198;5.422;2023-07-16T02:26:32;13.23;;;3.10;;
64842;SDS011;51310;52.198;5.422;2023-07-16T02:28:58;12.05;;;3.13;;
64842;SDS011;51310;52.198;5.422;2023-07-16T02:31:24;7.55;;;3.08;;
64842;SDS011;51310;52.198;5.422;2023-07-16T02:33:50;17.23;;;3.97;;
64842;SDS011;51310;52.198;5.422;2023-07-16T02:36:16;11.85;;;3.00;;
64842;SDS011;51310;52.198;5.422;2023-07-16T02:38:42;12.82;;;3.80;;
64842;SDS011;51310;52.198;5.422;2023-07-16T02:41:08;11.07;;;3.15;;
64842;SDS011;51310;52.198;5.422;2023-07-16T02:43:34;9.55;;;3.22;;
64842;SDS011;51310;52.198;5.422;2023-07-16T02:46:00;11.63;;;3.50;;
64842;SDS011;51310;52.198;5.422;2023-07-16T02:48:25;12.77;;;3.67;;
64842;SDS011;51310;52.198;5.422;2023-07-16T02:50:51;13.55;;;3.10;;
64842;SDS011;51310;52.198;5.422;2023-07-16T02:53:17;12.45;;;3.90;;
64842;SDS011;51310;52.198;5.422;2023-07-16T02:55:45;8.52;;;3.22;;
64842;SDS011;51310;52.198;5.422;2023-07-16T02:58:11;12.18;;;3.45;;
64842;SDS011;51310;52.198;5.422;2023-07-16T03:00:37;10.50;;;3.50;;
64842;SDS011;51310;52.198;5.422;2023-07-16T03:03:03;7.47;;;3.65;;
64842;SDS011;51310;52.198;5.422;2023-07-16T03:05:29;12.98;;;3.22;;
64842;SDS011;51310;52.198;5.422;2023-07-16T03:07:55;9.30;;;3.58;;
64842;SDS011;51310;52.198;5.422;2023-07-16T03:10:21;13.30;;;3.28;;
64842;SDS011;51310;52.198;5.422;2023-07-16T03:12:48;9.30;;;3.80;;
64842;SDS011;51310;52.198;5.422;2023-07-16T03:15:14;10.88;;;3.58;;
64842;SDS011;51310;52.198;5.422;2023-07-16T03:17:40;7.43;;;2.88;;
64842;SDS011;51310;52.198;5.422;2023-07-16T03:20:06;11.80;;;3.42;;
64842;SDS011;51310;52.198;5.422;2023-07-16T03:22:33;12.00;;;4.25;;
64842;SDS011;51310;52.198;5.422;2023-07-16T03:24:59;12.10;;;3.03;;
64842;SDS011;51310;52.198;5.422;2023-07-16T03:27:24;13.73;;;3.28;;
64842;SDS011;51310;52.198;5.422;2023-07-16T03:29:50;7.18;;;2.53;;
64842;SDS011;51310;52.198;5.422;2023-07-16T03:32:16;20.33;;;2.80;;
64842;SDS011;51310;52.198;5.422;2023-07-16T03:34:42;14.57;;;4.20;;
64842;SDS011;51310;52.198;5.422;2023-07-16T03:37:08;10.02;;;2.75;;
64842;SDS011;51310;52.198;5.422;2023-07-16T03:39:34;10.15;;;3.20;;
64842;SDS011;51310;52.198;5.422;2023-07-16T03:42:00;10.45;;;3.45;;
64842;SDS011;51310;52.198;5.422;2023-07-16T03:44:26;16.13;;;3.53;;
64842;SDS011;51310;52.198;5.422;2023-07-16T03:46:53;11.73;;;3.20;;
64842;SDS011;51310;52.198;5.422;2023-07-16T03:49:19;11.65;;;3.05;;
64842;SDS011;51310;52.198;5.422;2023-07-16T03:51:45;12.25;;;3.90;;
64842;SDS011;51310;52.198;5.422;2023-07-16T03:54:11;12.57;;;3.15;;
64842;SDS011;51310;52.198;5.422;2023-07-16T03:56:37;8.80;;;2.88;;
64842;SDS011;51310;52.198;5.422;2023-07-16T03:59:03;18.92;;;3.97;;
64842;SDS011;51310;52.198;5.422;2023-07-16T04:01:29;12.18;;;4.13;;
64842;SDS011;51310;52.198;5.422;2023-07-16T04:03:55;4.63;;;2.53;;
64842;SDS011;51310;52.198;5.422;2023-07-16T04:06:21;5.72;;;3.10;;
64842;SDS011;51310;52.198;5.422;2023-07-16T04:08:47;7.63;;;2.90;;
64842;SDS011;51310;52.198;5.422;2023-07-16T04:11:12;9.85;;;3.28;;
64842;SDS011;51310;52.198;5.422;2023-07-16T04:13:38;6.28;;;3.28;;
64842;SDS011;51310;52.198;5.422;2023-07-16T04:16:04;13.93;;;3.90;;
64842;SDS011;51310;52.198;5.422;2023-07-16T04:18:30;7.35;;;3.22;;
64842;SDS011;51310;52.198;5.422;2023-07-16T04:20:56;8.35;;;3.10;;
64842;SDS011;51310;52.198;5.422;2023-07-16T04:23:22;7.10;;;3.22;;
64842;SDS011;51310;52.198;5.422;2023-07-16T04:25:51;15.18;;;3.97;;
64842;SDS011;51310;52.198;5.422;2023-07-16T04:28:20;10.82;;;3.72;;
64842;SDS011;51310;52.198;5.422;2023-07-16T04:30:46;19.20;;;3.97;;
64842;SDS011;51310;52.198;5.422;2023-07-16T04:33:12;8.10;;;2.83;;
64842;SDS011;51310;52.198;5.422;2023-07-16T04:35:38;12.50;;;3.17;;
64842;SDS011;51310;52.198;5.422;2023-07-16T04:38:04;15.60;;;4.35;;
64842;SDS011;51310;52.198;5.422;2023-07-16T04:40:29;9.82;;;4.25;;
64842;SDS011;51310;52.198;5.422;2023-07-16T04:42:56;13.82;;;4.22;;
64842;SDS011;51310;52.198;5.422;2023-07-16T04:45:22;15.25;;;3.88;;
64842;SDS011;51310;52.198;5.422;2023-07-16T04:47:48;13.80;;;4.90;;
64842;SDS011;51310;52.198;5.422;2023-07-16T04:50:14;11.48;;;3.95;;
64842;SDS011;51310;52.198;5.422;2023-07-16T04:52:40;7.15;;;3.22;;
64842;SDS011;51310;52.198;5.422;2023-07-16T04:55:06;11.05;;;3.47;;
64842;SDS011;51310;52.198;5.422;2023-07-16T04:57:32;15.52;;;3.47;;
64842;SDS011;51310;52.198;5.422;2023-07-16T04:59:59;13.73;;;3.50;;
64842;SDS011;51310;52.198;5.422;2023-07-16T05:02:25;9.48;;;4.13;;
64842;SDS011;51310;52.198;5.422;2023-07-16T05:04:50;8.27;;;3.65;;
64842;SDS011;51310;52.198;5.422;2023-07-16T05:07:16;15.02;;;3.97;;
64842;SDS011;51310;52.198;5.422;2023-07-16T05:09:42;6.70;;;3.38;;
64842;SDS011;51310;52.198;5.422;2023-07-16T05:12:09;6.72;;;3.30;;
64842;SDS011;51310;52.198;5.422;2023-07-16T05:14:45;9.07;;;3.60;;
64842;SDS011;51310;52.198;5.422;2023-07-16T05:17:13;9.85;;;3.70;;
64842;SDS011;51310;52.198;5.422;2023-07-16T05:19:40;7.95;;;4.13;;
64842;SDS011;51310;52.198;5.422;2023-07-16T05:22:07;11.13;;;3.50;;
64842;SDS011;51310;52.198;5.422;2023-07-16T05:24:33;8.15;;;3.78;;
64842;SDS011;51310;52.198;5.422;2023-07-16T05:26:59;16.48;;;4.32;;
64842;SDS011;51310;52.198;5.422;2023-07-16T05:29:26;6.00;;;3.05;;
64842;SDS011;51310;52.198;5.422;2023-07-16T05:31:52;10.10;;;3.17;;
64842;SDS011;51310;52.198;5.422;2023-07-16T05:34:18;11.13;;;3.88;;
64842;SDS011;51310;52.198;5.422;2023-07-16T05:36:44;10.88;;;3.58;;
64842;SDS011;51310;52.198;5.422;2023-07-16T05:39:10;12.15;;;4.25;;
64842;SDS011;51310;52.198;5.422;2023-07-16T05:41:39;10.82;;;3.67;;
64842;SDS011;51310;52.198;5.422;2023-07-16T05:44:06;10.93;;;4.10;;
64842;SDS011;51310;52.198;5.422;2023-07-16T05:46:33;9.88;;;4.10;;
64842;SDS011;51310;52.198;5.422;2023-07-16T05:48:59;13.07;;;4.35;;
64842;SDS011;51310;52.198;5.422;2023-07-16T05:51:25;10.27;;;3.97;;
64842;SDS011;51310;52.198;5.422;2023-07-16T05:53:51;9.90;;;3.67;;
64842;SDS011;51310;52.198;5.422;2023-07-16T05:56:17;14.13;;;3.83;;
64842;SDS011;51310;52.198;5.422;2023-07-16T05:58:43;9.90;;;3.47;;
64842;SDS011;51310;52.198;5.422;2023-07-16T06:01:09;11.20;;;3.85;;
64842;SDS011;51310;52.198;5.422;2023-07-16T06:03:35;14.13;;;4.80;;
64842;SDS011;51310;52.198;5.422;2023-07-16T06:06:01;11.43;;;3.88;;
64842;SDS011;51310;52.198;5.422;2023-07-16T06:08:27;8.82;;;3.90;;
64842;SDS011;51310;52.198;5.422;2023-07-16T06:10:53;12.23;;;5.18;;
64842;SDS011;51310;52.198;5.422;2023-07-16T06:13:19;10.80;;;4.43;;
64842;SDS011;51310;52.198;5.422;2023-07-16T06:15:45;9.30;;;3.40;;
64842;SDS011;51310;52.198;5.422;2023-07-16T06:18:13;12.00;;;4.82;;
64842;SDS011;51310;52.198;5.422;2023-07-16T06:20:42;16.08;;;4.47;;
64842;SDS011;51310;52.198;5.422;2023-07-16T06:23:09;9.07;;;3.95;;
64842;SDS011;51310;52.198;5.422;2023-07-16T06:25:41;8.60;;;4.18;;
64842;SDS011;51310;52.198;5.422;2023-07-16T06:28:11;16.70;;;4.32;;
64842;SDS011;51310;52.198;5.422;2023-07-16T06:30:39;8.30;;;3.92;;
64842;SDS011;51310;52.198;5.422;2023-07-16T06:33:04;14.75;;;4.20;;
64842;SDS011;51310;52.198;5.422;2023-07-16T06:35:30;14.98;;;4.57;;
64842;SDS011;51310;52.198;5.422;2023-07-16T06:37:56;7.65;;;3.70;;
64842;SDS011;51310;52.198;5.422;2023-07-16T06:40:23;8.52;;;4.40;;
64842;SDS011;51310;52.198;5.422;2023-07-16T06:42:49;8.93;;;3.70;;
64842;SDS011;51310;52.198;5.422;2023-07-16T06:45:18;7.47;;;4.07;;
64842;SDS011;51310;52.198;5.422;2023-07-16T06:47:45;10.93;;;4.57;;
64842;SDS011;51310;52.198;5.422;2023-07-16T06:50:11;10.68;;;4.75;;
64842;SDS011;51310;52.198;5.422;2023-07-16T06:52:37;9.77;;;4.13;;
64842;SDS011;51310;52.198;5.422;2023-07-16T06:55:03;9.00;;;4.45;;
64842;SDS011;51310;52.198;5.422;2023-07-16T06:57:30;12.13;;;4.78;;
64842;SDS011;51310;52.198;5.422;2023-07-16T06:59:56;11.07;;;3.95;;
64842;SDS011;51310;52.198;5.422;2023-07-16T07:02:21;14.10;;;5.00;;
64842;SDS011;51310;52.198;5.422;2023-07-16T07:04:47;10.32;;;4.68;;
64842;SDS011;51310;52.198;5.422;2023-07-16T07:07:13;15.35;;;5.03;;
64842;SDS011;51310;52.198;5.422;2023-07-16T07:09:39;10.07;;;4.22;;
64842;SDS011;51310;52.198;5.422;2023-07-16T07:12:05;16.10;;;4.07;;
64842;SDS011;51310;52.198;5.422;2023-07-16T07:14:32;11.55;;;4.80;;
64842;SDS011;51310;52.198;5.422;2023-07-16T07:16:59;26.42;;;7.55;;
64842;SDS011;51310;52.198;5.422;2023-07-16T07:19:25;9.70;;;5.03;;
64842;SDS011;51310;52.198;5.422;2023-07-16T07:21:52;12.77;;;3.80;;
64842;SDS011;51310;52.198;5.422;2023-07-16T07:24:18;7.32;;;4.05;;
64842;SDS011;51310;52.198;5.422;2023-07-16T07:26:44;9.07;;;4.97;;
64842;SDS011;51310;52.198;5.422;2023-07-16T07:29:10;11.18;;;4.53;;
64842;SDS011;51310;52.198;5.422;2023-07-16T07:31:35;11.75;;;4.80;;
64842;SDS011;51310;52.198;5.422;2023-07-16T07:34:01;12.75;;;4.47;;
64842;SDS011;51310;52.198;5.422;2023-07-16T07:36:28;13.20;;;3.92;;
64842;SDS011;51310;52.198;5.422;2023-07-16T07:38:54;13.15;;;4.35;;
64842;SDS011;51310;52.198;5.422;2023-07-16T07:41:20;10.02;;;3.78;;
64842;SDS011;51310;52.198;5.422;2023-07-16T07:43:46;12.27;;;3.85;;
64842;SDS011;51310;52.198;5.422;2023-07-16T07:46:12;9.93;;;4.45;;
64842;SDS011;51310;52.198;5.422;2023-07-16T07:48:37;13.30;;;4.45;;
64842;SDS011;51310;52.198;5.422;2023-07-16T07:51:03;15.57;;;4.95;;
64842;SDS011;51310;52.198;5.422;2023-07-16T07:53:30;10.00;;;4.22;;
64842;SDS011;51310;52.198;5.422;2023-07-16T07:55:56;13.23;;;4.45;;
64842;SDS011;51310;52.198;5.422;2023-07-16T07:58:22;8.93;;;3.53;;
64842;SDS011;51310;52.198;5.422;2023-07-16T08:00:48;14.98;;;4.75;;
64842;SDS011;51310;52.198;5.422;2023-07-16T08:03:14;13.85;;;5.70;;
64842;SDS011;51310;52.198;5.422;2023-07-16T08:05:40;14.10;;;5.25;;
64842;SDS011;51310;52.198;5.422;2023-07-16T08:08:06;11.23;;;5.32;;
64842;SDS011;51310;52.198;5.422;2023-07-16T08:10:32;8.55;;;4.18;;
64842;SDS011;51310;52.198;5.422;2023-07-16T08:12:58;9.63;;;4.15;;
64842;SDS011;51310;52.198;5.422;2023-07-16T08:15:24;8.70;;;4.10;;
64842;SDS011;51310;52.198;5.422;2023-07-16T08:17:50;10.48;;;4.35;;
64842;SDS011;51310;52.198;5.422;2023-07-16T08:20:16;13.18;;;5.57;;
64842;SDS011;51310;52.198;5.422;2023-07-16T08:22:42;17.00;;;4.90;;
64842;SDS011;51310;52.198;5.422;2023-07-16T08:25:08;9.95;;;4.55;;
64842;SDS011;51310;52.198;5.422;2023-07-16T08:27:34;8.38;;;4.25;;
64842;SDS011;51310;52.198;5.422;2023-07-16T08:30:00;9.63;;;4.32;;
64842;SDS011;51310;52.198;5.422;2023-07-16T08:32:26;17.08;;;4.47;;
64842;SDS011;51310;52.198;5.422;2023-07-16T08:34:52;12.15;;;5.03;;
64842;SDS011;51310;52.198;5.422;2023-07-16T08:37:18;11.07;;;4.63;;
64842;SDS011;51310;52.198;5.422;2023-07-16T08:39:44;7.32;;;4.03;;
64842;SDS011;51310;52.198;5.422;2023-07-16T08:42:10;9.70;;;4.32;;
64842;SDS011;51310;52.198;5.422;2023-07-16T08:44:36;10.00;;;5.03;;
64842;SDS011;51310;52.198;5.422;2023-07-16T08:47:04;8.80;;;4.35;;
64842;SDS011;51310;52.198;5.422;2023-07-16T08:49:31;10.15;;;5.35;;
64842;SDS011;51310;52.198;5.422;2023-07-16T08:52:01;8.80;;;4.07;;
64842;SDS011;51310;52.198;5.422;2023-07-16T08:54:27;13.45;;;4.43;;
64842;SDS011;51310;52.198;5.422;2023-07-16T08:56:53;15.52;;;4.97;;
64842;SDS011;51310;52.198;5.422;2023-07-16T08:59:21;7.82;;;4.18;;
64842;SDS011;51310;52.198;5.422;2023-07-16T09:01:47;10.73;;;3.90;;
64842;SDS011;51310;52.198;5.422;2023-07-16T09:04:16;17.63;;;5.03;;
64842;SDS011;51310;52.198;5.422;2023-07-16T09:06:42;6.55;;;4.65;;
64842;SDS011;51310;52.198;5.422;2023-07-16T09:09:11;7.50;;;3.50;;
64842;SDS011;51310;52.198;5.422;2023-07-16T09:11:47;13.70;;;4.68;;
64842;SDS011;51310;52.198;5.422;2023-07-16T09:14:20;19.80;;;4.88;;
64842;SDS011;51310;52.198;5.422;2023-07-16T09:16:50;8.07;;;4.00;;
64842;SDS011;51310;52.198;5.422;2023-07-16T09:19:17;10.95;;;4.22;;
64842;SDS011;51310;52.198;5.422;2023-07-16T09:21:48;12.10;;;4.72;;
64842;SDS011;51310;52.198;5.422;2023-07-16T09:24:15;15.52;;;5.47;;
64842;SDS011;51310;52.198;5.422;2023-07-16T09:26:49;13.60;;;4.60;;
64842;SDS011;51310;52.198;5.422;2023-07-16T09:29:24;11.63;;;5.22;;
64842;SDS011;51310;52.198;5.422;2023-07-16T09:32:01;14.32;;;4.18;;
64842;SDS011;51310;52.198;5.422;2023-07-16T09:34:28;10.98;;;4.72;;
64842;SDS011;51310;52.198;5.422;2023-07-16T09:36:56;11.48;;;4.57;;
64842;SDS011;51310;52.198;5.422;2023-07-16T09:39:23;6.07;;;3.80;;
64842;SDS011;51310;52.198;5.422;2023-07-16T09:41:52;8.13;;;4.07;;
64842;SDS011;51310;52.198;5.422;2023-07-16T09:44:18;9.98;;;4.65;;
64842;SDS011;51310;52.198;5.422;2023-07-16T09:46:45;11.23;;;3.60;;
64842;SDS011;51310;52.198;5.422;2023-07-16T09:49:13;7.18;;;3.72;;
64842;SDS011;51310;52.198;5.422;2023-07-16T09:51:40;11.48;;;4.30;;
64842;SDS011;51310;52.198;5.422;2023-07-16T09:54:12;8.68;;;4.10;;
64842;SDS011;51310;52.198;5.422;2023-07-16T09:56:41;16.17;;;4.57;;
64842;SDS011;51310;52.198;5.422;2023-07-16T09:59:20;9.25;;;4.25;;
64842;SDS011;51310;52.198;5.422;2023-07-16T10:01:52;9.93;;;4.22;;
64842;SDS011;51310;52.198;5.422;2023-07-16T10:04:20;19.27;;;4.32;;
64842;SDS011;51310;52.198;5.422;2023-07-16T10:06:50;11.25;;;4.30;;
64842;SDS011;51310;52.198;5.422;2023-07-16T10:09:31;8.85;;;4.25;;
64842;SDS011;51310;52.198;5.422;2023-07-16T10:14:39;9.20;;;5.05;;
64842;SDS011;51310;52.198;5.422;2023-07-16T10:17:14;8.48;;;4.68;;
64842;SDS011;51310;52.198;5.422;2023-07-16T10:19:51;11.95;;;4.57;;
64842;SDS011;51310;52.198;5.422;2023-07-16T10:22:41;11.23;;;4.80;;
64842;SDS011;51310;52.198;5.422;2023-07-16T10:27:47;10.63;;;3.95;;
64842;SDS011;51310;52.198;5.422;2023-07-16T10:30:16;14.83;;;4.73;;
64842;SDS011;51310;52.198;5.422;2023-07-16T10:32:43;11.10;;;4.10;;
64842;SDS011;51310;52.198;5.422;2023-07-16T10:35:09;11.50;;;5.22;;
64842;SDS011;51310;52.198;5.422;2023-07-16T10:37:36;12.77;;;4.55;;
64842;SDS011;51310;52.198;5.422;2023-07-16T10:40:04;13.90;;;5.22;;
64842;SDS011;51310;52.198;5.422;2023-07-16T10:42:36;9.07;;;4.30;;
64842;SDS011;51310;52.198;5.422;2023-07-16T10:45:05;12.75;;;4.57;;
64842;SDS011;51310;52.198;5.422;2023-07-16T10:47:33;9.00;;;4.07;;
64842;SDS011;51310;52.198;5.422;2023-07-16T10:50:05;10.52;;;4.22;;
64842;SDS011;51310;52.198;5.422;2023-07-16T10:52:35;12.10;;;3.80;;
64842;SDS011;51310;52.198;5.422;2023-07-16T10:55:02;8.15;;;3.90;;
64842;SDS011;51310;52.198;5.422;2023-07-16T10:57:29;7.30;;;3.72;;
64842;SDS011;51310;52.198;5.422;2023-07-16T10:59:56;8.60;;;4.13;;
64842;SDS011;51310;52.198;5.422;2023-07-16T11:02:24;9.27;;;4.40;;
64842;SDS011;51310;52.198;5.422;2023-07-16T11:04:51;7.32;;;4.13;;
64842;SDS011;51310;52.198;5.422;2023-07-16T11:07:18;5.60;;;3.25;;
64842;SDS011;51310;52.198;5.422;2023-07-16T11:09:51;18.00;;;4.13;;
64842;SDS011;51310;52.198;5.422;2023-07-16T11:12:21;9.77;;;3.85;;
64842;SDS011;51310;52.198;5.422;2023-07-16T11:14:50;4.80;;;3.28;;
64842;SDS011;51310;52.198;5.422;2023-07-16T11:17:22;8.35;;;3.65;;
64842;SDS011;51310;52.198;5.422;2023-07-16T11:19:50;7.22;;;3.17;;
64842;SDS011;51310;52.198;5.422;2023-07-16T11:22:18;6.43;;;2.55;;
64842;SDS011;51310;52.198;5.422;2023-07-16T11:24:45;9.65;;;3.38;;
64842;SDS011;51310;52.198;5.422;2023-07-16T11:27:22;6.32;;;2.40;;
64842;SDS011;51310;52.198;5.422;2023-07-16T11:29:52;7.38;;;3.15;;
64842;SDS011;51310;52.198;5.422;2023-07-16T11:35:00;5.78;;;2.60;;
64842;SDS011;51310;52.198;5.422;2023-07-16T11:37:33;9.48;;;3.45;;
64842;SDS011;51310;52.198;5.422;2023-07-16T11:40:03;4.45;;;2.42;;
64842;SDS011;51310;52.198;5.422;2023-07-16T11:42:33;8.05;;;3.13;;
64842;SDS011;51310;52.198;5.422;2023-07-16T11:45:20;10.38;;;3.42;;
64842;SDS011;51310;52.198;5.422;2023-07-16T11:47:53;7.05;;;2.65;;
64842;SDS011;51310;52.198;5.422;2023-07-16T11:50:19;5.07;;;2.63;;
64842;SDS011;51310;52.198;5.422;2023-07-16T11:52:52;6.07;;;3.58;;
64842;SDS011;51310;52.198;5.422;2023-07-16T11:55:26;8.35;;;3.10;;
64842;SDS011;51310;52.198;5.422;2023-07-16T11:57:52;8.32;;;3.47;;
64842;SDS011;51310;52.198;5.422;2023-07-16T12:00:18;6.88;;;2.55;;
64842;SDS011;51310;52.198;5.422;2023-07-16T12:02:44;5.22;;;3.15;;
64842;SDS011;51310;52.198;5.422;2023-07-16T12:05:16;6.35;;;2.60;;
64842;SDS011;51310;52.198;5.422;2023-07-16T12:07:52;4.28;;;2.42;;
64842;SDS011;51310;52.198;5.422;2023-07-16T12:10:18;8.18;;;2.38;;
64842;SDS011;51310;52.198;5.422;2023-07-16T12:12:45;5.07;;;2.47;;
64842;SDS011;51310;52.198;5.422;2023-07-16T12:15:11;6.22;;;2.00;;
64842;SDS011;51310;52.198;5.422;2023-07-16T12:17:37;2.35;;;1.45;;
64842;SDS011;51310;52.198;5.422;2023-07-16T12:20:03;5.32;;;1.73;;
64842;SDS011;51310;52.198;5.422;2023-07-16T12:22:30;6.07;;;1.50;;
64842;SDS011;51310;52.198;5.422;2023-07-16T12:24:57;3.63;;;1.52;;
64842;SDS011;51310;52.198;5.422;2023-07-16T12:27:22;6.13;;;1.55;;
64842;SDS011;51310;52.198;5.422;2023-07-16T12:29:48;6.50;;;2.08;;
64842;SDS011;51310;52.198;5.422;2023-07-16T12:32:14;3.17;;;1.52;;
64842;SDS011;51310;52.198;5.422;2023-07-16T12:34:40;3.83;;;1.95;;
64842;SDS011;51310;52.198;5.422;2023-07-16T12:37:06;3.20;;;1.50;;
64842;SDS011;51310;52.198;5.422;2023-07-16T12:39:32;3.53;;;1.48;;
64842;SDS011;51310;52.198;5.422;2023-07-16T12:41:58;5.30;;;1.50;;
64842;SDS011;51310;52.198;5.422;2023-07-16T12:44:24;2.92;;;1.42;;
64842;SDS011;51310;52.198;5.422;2023-07-16T12:46:50;5.05;;;1.80;;
64842;SDS011;51310;52.198;5.422;2023-07-16T12:49:16;5.90;;;2.03;;
64842;SDS011;51310;52.198;5.422;2023-07-16T12:51:43;5.40;;;1.65;;
64842;SDS011;51310;52.198;5.422;2023-07-16T12:54:09;9.45;;;2.70;;
64842;SDS011;51310;52.198;5.422;2023-07-16T12:56:35;4.57;;;2.05;;
64842;SDS011;51310;52.198;5.422;2023-07-16T12:59:00;11.65;;;2.35;;
64842;SDS011;51310;52.198;5.422;2023-07-16T13:01:26;6.00;;;1.95;;
64842;SDS011;51310;52.198;5.422;2023-07-16T13:03:52;5.43;;;1.63;;
64842;SDS011;51310;52.198;5.422;2023-07-16T13:06:18;3.53;;;1.45;;
64842;SDS011;51310;52.198;5.422;2023-07-16T13:08:44;5.10;;;1.70;;
64842;SDS011;51310;52.198;5.422;2023-07-16T13:11:10;3.28;;;1.75;;
64842;SDS011;51310;52.198;5.422;2023-07-16T13:13:36;4.68;;;1.20;;
64842;SDS011;51310;52.198;5.422;2023-07-16T13:16:02;6.53;;;2.83;;
64842;SDS011;51310;52.198;5.422;2023-07-16T13:18:28;6.05;;;1.50;;
64842;SDS011;51310;52.198;5.422;2023-07-16T13:20:55;4.10;;;1.40;;
64842;SDS011;51310;52.198;5.422;2023-07-16T13:23:21;11.32;;;1.63;;
64842;SDS011;51310;52.198;5.422;2023-07-16T13:25:46;3.83;;;1.60;;
64842;SDS011;51310;52.198;5.422;2023-07-16T13:28:16;5.50;;;1.65;;
64842;SDS011;51310;52.198;5.422;2023-07-16T13:30:42;4.10;;;1.77;;
64842;SDS011;51310;52.198;5.422;2023-07-16T13:33:08;4.57;;;1.52;;
64842;SDS011;51310;52.198;5.422;2023-07-16T13:35:34;3.85;;;1.17;;
64842;SDS011;51310;52.198;5.422;2023-07-16T13:37:59;5.82;;;1.30;;
64842;SDS011;51310;52.198;5.422;2023-07-16T13:40:26;5.68;;;1.50;;
64842;SDS011;51310;52.198;5.422;2023-07-16T13:42:52;3.05;;;1.10;;
64842;SDS011;51310;52.198;5.422;2023-07-16T13:45:18;5.05;;;1.40;;
64842;SDS011;51310;52.198;5.422;2023-07-16T13:47:44;9.95;;;1.30;;
64842;SDS011;51310;52.198;5.422;2023-07-16T13:50:10;3.75;;;1.40;;
64842;SDS011;51310;52.198;5.422;2023-07-16T13:52:36;4.45;;;1.42;;
64842;SDS011;51310;52.198;5.422;2023-07-16T13:55:02;4.13;;;1.25;;
64842;SDS011;51310;52.198;5.422;2023-07-16T13:57:30;7.80;;;1.50;;
64842;SDS011;51310;52.198;5.422;2023-07-16T13:59:56;7.25;;;1.70;;
64842;SDS011;51310;52.198;5.422;2023-07-16T14:02:22;3.85;;;1.25;;
64842;SDS011;51310;52.198;5.422;2023-07-16T14:04:48;5.60;;;1.38;;
64842;SDS011;51310;52.198;5.422;2023-07-16T14:07:14;3.20;;;1.38;;
64842;SDS011;51310;52.198;5.422;2023-07-16T14:09:40;3.95;;;1.20;;
64842;SDS011;51310;52.198;5.422;2023-07-16T14:12:06;2.65;;;0.80;;
64842;SDS011;51310;52.198;5.422;2023-07-16T14:14:32;8.23;;;1.40;;
64842;SDS011;51310;52.198;5.422;2023-07-16T14:16:58;3.03;;;0.82;;
64842;SDS011;51310;52.198;5.422;2023-07-16T14:19:24;4.75;;;1.35;;
64842;SDS011;51310;52.198;5.422;2023-07-16T14:21:50;6.22;;;1.15;;
64842;SDS011;51310;52.198;5.422;2023-07-16T14:24:16;8.40;;;1.67;;
64842;SDS011;51310;52.198;5.422;2023-07-16T14:26:42;5.30;;;1.33;;
64842;SDS011;51310;52.198;5.422;2023-07-16T14:29:08;5.03;;;1.27;;
64842;SDS011;51310;52.198;5.422;2023-07-16T14:31:36;8.27;;;1.58;;
64842;SDS011;51310;52.198;5.422;2023-07-16T14:34:02;7.50;;;1.35;;
64842;SDS011;51310;52.198;5.422;2023-07-16T14:36:28;7.00;;;1.40;;
64842;SDS011;51310;52.198;5.422;2023-07-16T14:38:54;4.40;;;1.48;;
64842;SDS011;51310;52.198;5.422;2023-07-16T14:41:20;6.93;;;1.60;;
64842;SDS011;51310;52.198;5.422;2023-07-16T14:43:46;8.57;;;2.30;;
64842;SDS011;51310;52.198;5.422;2023-07-16T14:46:14;4.30;;;1.50;;
64842;SDS011;51310;52.198;5.422;2023-07-16T14:48:45;9.80;;;2.83;;
64842;SDS011;51310;52.198;5.422;2023-07-16T14:51:12;6.95;;;2.70;;
64842;SDS011;51310;52.198;5.422;2023-07-16T14:53:38;7.03;;;1.63;;
64842;SDS011;51310;52.198;5.422;2023-07-16T14:56:04;6.85;;;1.35;;
64842;SDS011;51310;52.198;5.422;2023-07-16T14:58:31;10.13;;;1.95;;
64842;SDS011;51310;52.198;5.422;2023-07-16T15:01:02;8.70;;;2.20;;